This is the latest recevied weather packets stored in our database for station/object EA4URC-13. If no packets are shown the sender has not sent any weather packets the latest 10 day(s).
| Time | Temp. | Humidity | Pressure | Rain* | Wind** | Luminosity | Snow |
|---|---|---|---|---|---|---|---|
| 1788488319 | 21.67° C | 42% | 1019.7 hPa | - | - | - | - |
| 1788487419 | 20.56° C | 46% | 1020.3 hPa | - | - | - | - |
| 1788486519 | 21.11° C | 46% | 1020.2 hPa | - | - | - | - |
| 1788485619 | 20.56° C | 47% | 1020.5 hPa | - | - | - | - |
| 1788484719 | 20.56° C | 46% | 1020.7 hPa | - | - | - | - |
| 1788483819 | 20.56° C | 48% | 1020.8 hPa | - | - | - | - |
| 1788482919 | 20° C | 48% | 1021.1 hPa | - | - | - | - |
| 1788482019 | 20.56° C | 46% | 1021.1 hPa | - | - | - | - |
| 1788481320 | 20.56° C | 44% | 1021.2 hPa | - | - | - | - |
| 1788481129 | 20.56° C | 44% | 1021.2 hPa | - | - | - | - |
| 1788480218 | 20.56° C | 47% | 1021.2 hPa | - | - | - | - |
| 1788479318 | 21.11° C | 46% | 1020.9 hPa | - | - | - | - |
| 1788478419 | 20.56° C | 41% | 1021 hPa | - | - | - | - |
| 1788477518 | 22.78° C | 30% | 1020.1 hPa | - | - | - | - |
| 1788476619 | 23.33° C | 21% | 1019.6 hPa | - | - | - | - |
| 1788475718 | 26.67° C | 18% | 1018.1 hPa | - | - | - | - |
| 1788474819 | 26.67° C | 18% | 1017.9 hPa | - | - | - | - |
| 1788473918 | 26.67° C | 18% | 1017.9 hPa | - | - | - | - |
| 1788473018 | 26.67° C | 18% | 1017.8 hPa | - | - | - | - |
| 1788472118 | 26.67° C | 18% | 1017.8 hPa | - | - | - | - |
| 1788471218 | 27.22° C | 18% | 1017.8 hPa | - | - | - | - |
| 1788470318 | 27.22° C | 18% | 1017.8 hPa | - | - | - | - |
| 1788469418 | 27.22° C | 18% | 1017.8 hPa | - | - | - | - |
| 1788468518 | 27.22° C | 18% | 1017.9 hPa | - | - | - | - |
| 1788467618 | 27.22° C | 18% | 1017.8 hPa | - | - | - | - |
* Rain since midnight (hover to see other rain measurements)
** Current wind speed in m/s (hover to see current wind gust speed)